createdAt,value
2022-10-05T00:00:35.968Z,85.76
2022-10-05T00:01:37.585Z,85.13
2022-10-05T00:02:39.188Z,85.39
2022-10-05T00:03:41.324Z,85.45
2022-10-05T00:04:43.048Z,85.55
2022-10-05T00:05:45.347Z,85.67
2022-10-05T00:06:56.468Z,85.78
2022-10-05T00:08:04.871Z,85.66
2022-10-05T00:09:17.927Z,85.39
2022-10-05T00:10:24.052Z,85.47
2022-10-05T00:11:25.753Z,85.38
2022-10-05T00:12:28.274Z,85.40
2022-10-05T00:13:30.529Z,85.47
2022-10-05T00:14:33.498Z,85.43
2022-10-05T00:15:35.099Z,85.30
2022-10-05T00:16:36.633Z,85.30
2022-10-05T00:17:38.243Z,85.32
2022-10-05T00:18:39.820Z,85.40
2022-10-05T00:19:41.483Z,85.56
2022-10-05T00:20:43.718Z,85.41
2022-10-05T00:21:45.287Z,85.69
2022-10-05T00:22:46.900Z,85.77
2022-10-05T00:23:48.522Z,86.23
2022-10-05T00:24:51.968Z,86.40
2022-10-05T00:25:53.560Z,86.46
2022-10-05T00:26:58.039Z,86.50
2022-10-05T00:28:00.543Z,86.68
2022-10-05T00:29:02.756Z,87.23
2022-10-05T00:30:20.476Z,87.28
2022-10-05T00:31:23.960Z,86.90
2022-10-05T00:32:25.674Z,86.76
2022-10-05T00:33:27.345Z,87.24
2022-10-05T00:34:28.918Z,87.59
2022-10-05T00:35:31.571Z,87.70
2022-10-05T00:36:33.166Z,87.98
2022-10-05T00:37:34.810Z,87.95
2022-10-05T00:38:36.385Z,88.15
2022-10-05T00:39:39.087Z,87.81
2022-10-05T00:40:46.606Z,87.71
2022-10-05T00:42:06.439Z,87.57
2022-10-05T00:43:39.186Z,87.25
2022-10-05T00:44:51.941Z,87.09
2022-10-05T00:45:58.604Z,87.23
2022-10-05T00:47:31.869Z,87.17
2022-10-05T00:48:40.193Z,87.13
2022-10-05T00:50:06.386Z,87.39
2022-10-05T00:51:17.440Z,87.28
2022-10-05T00:52:38.107Z,87.38
2022-10-05T00:53:54.798Z,87.52
2022-10-05T00:55:00.547Z,87.57
2022-10-05T00:56:16.942Z,87.97
2022-10-05T00:57:37.297Z,87.97
2022-10-05T00:58:48.950Z,87.92
2022-10-05T01:00:08.126Z,87.73
2022-10-05T01:01:13.225Z,87.41
2022-10-05T01:02:34.387Z,87.00
2022-10-05T01:03:40.213Z,86.91
2022-10-05T01:04:54.114Z,86.72
2022-10-05T01:06:16.769Z,86.84
2022-10-05T01:08:16.965Z,86.69
2022-10-05T01:09:21.439Z,86.73
2022-10-05T01:10:50.477Z,86.68
2022-10-05T01:11:57.938Z,86.49
2022-10-05T01:13:05.454Z,86.24
2022-10-05T01:14:18.781Z,86.60
2022-10-05T01:15:50.838Z,86.80
2022-10-05T01:17:02.392Z,86.49
2022-10-05T01:18:07.738Z,86.75
2022-10-05T01:19:33.625Z,86.54
2022-10-05T01:20:44.123Z,86.02
2022-10-05T01:21:53.689Z,86.11
2022-10-05T01:23:02.869Z,85.87
2022-10-05T01:24:24.054Z,86.01
2022-10-05T01:25:48.802Z,85.79
2022-10-05T01:26:59.647Z,86.36
2022-10-05T01:28:04.556Z,86.27
2022-10-05T01:29:28.311Z,85.75
2022-10-05T01:30:55.340Z,85.85
2022-10-05T01:32:24.004Z,85.88
2022-10-05T01:33:33.660Z,85.73
2022-10-05T01:34:38.720Z,85.65
2022-10-05T01:35:57.115Z,85.63
2022-10-05T01:37:04.496Z,85.29
2022-10-05T01:38:29.870Z,85.55
2022-10-05T01:39:53.732Z,85.43
2022-10-05T01:41:11.433Z,85.04
2022-10-05T01:42:19.014Z,84.71
2022-10-05T01:43:49.518Z,84.38
2022-10-05T01:45:09.890Z,84.34
2022-10-05T01:46:28.387Z,84.97
2022-10-05T01:47:46.943Z,85.13
2022-10-05T01:49:00.951Z,85.23
2022-10-05T01:50:07.047Z,85.44
2022-10-05T01:51:42.069Z,85.35
2022-10-05T01:52:46.638Z,85.12
2022-10-05T01:54:17.038Z,85.01
2022-10-05T01:55:36.966Z,84.71
2022-10-05T01:57:03.235Z,84.56
2022-10-05T01:58:28.047Z,84.56
2022-10-05T02:00:03.371Z,84.56
2022-10-05T02:01:29.543Z,84.74
2022-10-05T02:02:32.192Z,84.92
2022-10-05T02:03:59.956Z,85.07
2022-10-05T02:05:07.546Z,85.21
2022-10-05T02:06:12.993Z,85.47
2022-10-05T02:07:19.308Z,85.18
2022-10-05T02:08:41.793Z,85.21
2022-10-05T02:09:51.169Z,85.56
2022-10-05T02:11:06.549Z,85.71
2022-10-05T02:12:12.187Z,85.81
2022-10-05T02:13:27.630Z,85.94
2022-10-05T02:14:33.108Z,85.82
2022-10-05T02:15:40.136Z,85.70
2022-10-05T02:16:43.179Z,85.31
2022-10-05T02:17:47.428Z,85.41
2022-10-05T02:18:58.442Z,85.25
2022-10-05T02:20:06.263Z,85.56
2022-10-05T02:21:08.038Z,85.65
2022-10-05T02:22:20.521Z,85.68
2022-10-05T02:23:24.378Z,85.65
2022-10-05T02:24:29.770Z,85.45
2022-10-05T02:25:33.563Z,85.54
2022-10-05T02:26:35.630Z,85.95
2022-10-05T02:27:50.313Z,86.07
2022-10-05T02:29:02.818Z,86.13
2022-10-05T02:30:07.117Z,86.11
2022-10-05T02:31:15.761Z,87.03
2022-10-05T02:32:20.498Z,87.07
2022-10-05T02:33:28.771Z,87.39
2022-10-05T02:34:33.830Z,86.20
2022-10-05T02:35:35.469Z,86.16
2022-10-05T02:36:37.028Z,85.97
2022-10-05T02:37:57.471Z,85.38
2022-10-05T02:39:19.557Z,85.90
2022-10-05T02:40:38.252Z,86.30
2022-10-05T02:41:51.775Z,86.44
2022-10-05T02:43:46.578Z,86.34
2022-10-05T02:44:58.562Z,85.90
2022-10-05T02:46:02.736Z,86.08
2022-10-05T02:47:17.490Z,86.30
2022-10-05T02:48:52.556Z,87.06
2022-10-05T02:50:15.434Z,87.08
2022-10-05T02:51:24.269Z,87.18
2022-10-05T02:52:56.335Z,87.27
2022-10-05T02:54:03.257Z,87.51
2022-10-05T02:55:04.858Z,87.27
2022-10-05T02:56:17.570Z,87.31
2022-10-05T02:57:34.813Z,87.30
2022-10-05T02:58:54.197Z,87.15
2022-10-05T03:00:10.860Z,87.08
2022-10-05T03:01:27.593Z,87.08
2022-10-05T03:02:47.878Z,87.02
2022-10-05T03:04:00.262Z,87.09
2022-10-05T03:05:30.900Z,87.06
2022-10-05T03:06:36.595Z,87.12
2022-10-05T03:07:52.442Z,87.03
2022-10-05T03:09:01.967Z,87.18
2022-10-05T03:10:06.546Z,87.12
2022-10-05T03:11:12.864Z,87.17
2022-10-05T03:12:29.172Z,87.14
2022-10-05T03:13:45.799Z,86.38
2022-10-05T03:14:59.118Z,86.17
2022-10-05T03:16:37.589Z,86.63
2022-10-05T03:17:48.235Z,87.04
2022-10-05T03:19:16.920Z,86.74
2022-10-05T03:20:40.855Z,86.28
2022-10-05T03:21:48.568Z,86.15
2022-10-05T03:22:53.050Z,85.92
2022-10-05T03:24:02.876Z,85.53
2022-10-05T03:25:26.221Z,85.17
2022-10-05T03:26:49.662Z,85.58
2022-10-05T03:28:12.722Z,85.54
2022-10-05T03:29:33.019Z,85.38
2022-10-05T03:31:09.287Z,86.23
2022-10-05T03:32:29.066Z,86.41
2022-10-05T03:33:58.990Z,86.16
2022-10-05T03:35:05.283Z,86.07
2022-10-05T03:36:28.616Z,86.14
2022-10-05T03:37:50.003Z,86.36
2022-10-05T03:39:03.504Z,86.33
2022-10-05T03:40:08.377Z,86.27
2022-10-05T03:41:13.335Z,86.35
2022-10-05T03:42:21.218Z,86.33
2022-10-05T03:43:43.904Z,86.35
2022-10-05T03:44:51.190Z,86.45
2022-10-05T03:45:58.785Z,86.45
2022-10-05T03:47:30.077Z,86.35
2022-10-05T03:48:40.138Z,86.31
2022-10-05T03:49:50.195Z,86.32
2022-10-05T03:51:19.986Z,86.20
2022-10-05T03:52:26.185Z,86.10
2022-10-05T03:53:30.118Z,85.99
2022-10-05T03:54:39.492Z,85.82
2022-10-05T03:55:59.761Z,85.85
2022-10-05T03:57:08.377Z,86.11
2022-10-05T03:58:16.140Z,86.07
2022-10-05T03:59:20.802Z,85.75
2022-10-05T04:00:25.960Z,85.95
2022-10-05T04:01:40.186Z,86.21
2022-10-05T04:03:09.837Z,86.13
2022-10-05T04:04:13.789Z,86.67
2022-10-05T04:05:18.138Z,86.95
2022-10-05T04:06:26.854Z,86.86
2022-10-05T04:07:42.787Z,87.11
2022-10-05T04:08:47.984Z,87.11
2022-10-05T04:09:49.976Z,87.21
2022-10-05T04:10:58.263Z,87.11
2022-10-05T04:12:25.849Z,86.97
2022-10-05T04:13:29.899Z,86.80
2022-10-05T04:14:37.148Z,86.58
2022-10-05T04:16:06.642Z,86.29
2022-10-05T04:17:17.155Z,86.43
2022-10-05T04:18:43.946Z,86.72
2022-10-05T04:19:50.972Z,86.06
2022-10-05T04:20:56.241Z,86.49
2022-10-05T04:22:06.387Z,86.50
2022-10-05T04:23:10.533Z,86.15
2022-10-05T04:24:19.300Z,86.20
2022-10-05T04:25:22.648Z,85.94
2022-10-05T04:26:36.793Z,86.07
2022-10-05T04:27:39.824Z,86.02
2022-10-05T04:28:44.488Z,85.97
2022-10-05T04:29:55.784Z,85.86
2022-10-05T04:30:57.429Z,85.99
2022-10-05T04:32:25.281Z,85.88
2022-10-05T04:33:26.864Z,85.46
2022-10-05T04:34:31.236Z,85.39
2022-10-05T04:35:56.948Z,85.27
2022-10-05T04:37:00.027Z,85.18
2022-10-05T04:38:21.284Z,85.48
2022-10-05T04:39:41.097Z,85.78
2022-10-05T04:40:54.978Z,85.36
2022-10-05T04:42:07.583Z,84.96
2022-10-05T04:43:39.111Z,84.73
2022-10-05T04:45:04.734Z,84.82
2022-10-05T04:46:53.524Z,85.03
2022-10-05T04:48:10.085Z,84.83
2022-10-05T04:49:26.955Z,84.74
2022-10-05T04:51:02.511Z,84.70
2022-10-05T04:52:32.531Z,85.85
2022-10-05T04:53:39.315Z,85.95
2022-10-05T04:54:54.226Z,85.97
2022-10-05T04:56:09.846Z,86.26
2022-10-05T04:57:31.560Z,86.16
2022-10-05T04:59:11.994Z,86.30
2022-10-05T05:00:24.112Z,86.08
2022-10-05T05:02:02.300Z,85.56
2022-10-05T05:03:20.118Z,85.66
2022-10-05T05:04:59.009Z,85.73
2022-10-05T05:06:17.458Z,85.39
2022-10-05T05:07:31.373Z,85.41
2022-10-05T05:08:47.774Z,85.87
2022-10-05T05:09:58.335Z,85.56
2022-10-05T05:11:24.523Z,85.42
2022-10-05T05:12:52.286Z,85.42
2022-10-05T05:13:58.456Z,85.32
2022-10-05T05:15:28.109Z,85.65
2022-10-05T05:16:34.087Z,85.35
2022-10-05T05:17:57.238Z,85.24
2022-10-05T05:19:17.175Z,85.48
2022-10-05T05:20:28.142Z,85.81
2022-10-05T05:21:48.979Z,85.88
2022-10-05T05:22:52.676Z,85.79
2022-10-05T05:24:01.238Z,85.74
2022-10-05T05:25:46.812Z,85.68
2022-10-05T05:27:15.788Z,85.23
2022-10-05T05:28:19.629Z,85.61
2022-10-05T05:29:48.838Z,85.29
2022-10-05T05:31:26.396Z,84.37
2022-10-05T05:32:58.749Z,83.58
2022-10-05T05:34:22.315Z,83.23
2022-10-05T05:35:38.980Z,82.55
2022-10-05T05:36:51.953Z,82.12
2022-10-05T05:38:34.095Z,81.20
2022-10-05T05:39:47.773Z,79.98
2022-10-05T05:41:11.264Z,78.00
2022-10-05T05:42:37.009Z,76.20
2022-10-05T05:44:00.909Z,75.14
2022-10-05T05:45:17.122Z,73.69
2022-10-05T05:46:38.769Z,72.73
2022-10-05T05:47:56.942Z,72.15
2022-10-05T05:48:58.580Z,72.03
2022-10-05T05:50:09.220Z,72.05
2022-10-05T05:51:33.721Z,71.74
2022-10-05T05:52:36.857Z,72.47
2022-10-05T05:53:46.599Z,73.12
2022-10-05T05:54:59.620Z,74.28
2022-10-05T05:56:12.058Z,74.46
2022-10-05T05:57:19.303Z,74.93
2022-10-05T05:58:27.581Z,76.03
2022-10-05T05:59:35.266Z,76.90
2022-10-05T06:00:38.939Z,78.33
2022-10-05T06:01:46.091Z,79.15
2022-10-05T06:02:53.371Z,79.93
2022-10-05T06:03:59.838Z,80.40
2022-10-05T06:05:06.891Z,82.03
2022-10-05T06:06:13.516Z,83.69
2022-10-05T06:07:20.034Z,84.26
2022-10-05T06:08:39.968Z,84.98
2022-10-05T06:09:47.358Z,85.03
2022-10-05T06:10:53.221Z,85.29
2022-10-05T06:11:57.165Z,85.05
2022-10-05T06:13:01.876Z,84.87
2022-10-05T06:14:05.797Z,85.10
2022-10-05T06:15:25.793Z,85.16
2022-10-05T06:16:52.211Z,85.04
2022-10-05T06:17:55.386Z,85.17
2022-10-05T06:19:05.132Z,84.56
2022-10-05T06:20:13.821Z,84.12
2022-10-05T06:21:32.578Z,83.80
2022-10-05T06:22:38.958Z,83.59
2022-10-05T06:24:14.287Z,83.41
2022-10-05T06:25:30.276Z,82.82
2022-10-05T06:26:55.819Z,82.04
2022-10-05T06:28:10.864Z,82.49
2022-10-05T06:29:17.089Z,83.34
2022-10-05T06:30:18.687Z,84.00
2022-10-05T06:31:42.992Z,83.97
2022-10-05T06:32:50.186Z,83.39
2022-10-05T06:33:52.758Z,83.50
2022-10-05T06:35:33.014Z,84.19
2022-10-05T06:36:46.280Z,84.20
2022-10-05T06:37:56.945Z,83.94
2022-10-05T06:39:26.191Z,83.31
2022-10-05T06:40:39.549Z,82.96
2022-10-05T06:42:09.656Z,82.96
2022-10-05T06:43:36.389Z,82.83
2022-10-05T06:45:06.166Z,82.55
2022-10-05T06:46:39.348Z,81.90
2022-10-05T06:47:52.588Z,82.16
2022-10-05T06:49:18.537Z,82.17
2022-10-05T06:50:39.042Z,82.21
2022-10-05T06:51:48.090Z,82.71
2022-10-05T06:53:01.013Z,82.64
2022-10-05T06:54:25.983Z,82.46
2022-10-05T06:56:09.528Z,82.77
2022-10-05T06:57:49.817Z,82.71
2022-10-05T06:59:13.946Z,82.71
2022-10-05T07:00:20.179Z,83.07
2022-10-05T07:01:37.084Z,82.32
2022-10-05T07:03:05.803Z,82.55
2022-10-05T07:04:37.065Z,82.69
2022-10-05T07:05:38.868Z,83.08
2022-10-05T07:07:00.213Z,83.01
2022-10-05T07:08:05.033Z,82.89
2022-10-05T07:09:38.288Z,83.19
2022-10-05T07:10:47.976Z,82.91
2022-10-05T07:12:21.760Z,82.14
2022-10-05T07:13:47.267Z,81.44
2022-10-05T07:14:56.182Z,82.55
2022-10-05T07:16:13.751Z,82.30
2022-10-05T07:17:33.630Z,82.32
2022-10-05T07:18:47.974Z,82.43
2022-10-05T07:19:58.062Z,82.48
2022-10-05T07:21:15.721Z,82.58
2022-10-05T07:22:44.642Z,82.15
2022-10-05T07:23:52.158Z,82.29
2022-10-05T07:25:11.079Z,82.82
2022-10-05T07:26:19.115Z,82.66
2022-10-05T07:27:24.555Z,82.46
2022-10-05T07:28:38.615Z,82.46
2022-10-05T07:29:52.101Z,81.82
2022-10-05T07:31:00.501Z,82.39
2022-10-05T07:32:18.714Z,82.20
2022-10-05T07:33:30.896Z,81.94
2022-10-05T07:34:54.846Z,81.58
2022-10-05T07:36:21.832Z,81.74
2022-10-05T07:37:57.177Z,81.59
2022-10-05T07:39:01.215Z,81.72
2022-10-05T07:40:11.517Z,80.75
2022-10-05T07:41:30.197Z,81.01
2022-10-05T07:42:50.904Z,81.29
2022-10-05T07:44:02.527Z,81.80
2022-10-05T07:45:34.733Z,80.70
2022-10-05T07:46:52.093Z,81.19
2022-10-05T07:47:58.573Z,80.87
2022-10-05T07:49:14.136Z,80.72
2022-10-05T07:50:33.827Z,81.18
2022-10-05T07:51:37.676Z,81.15
2022-10-05T07:52:40.598Z,81.50
2022-10-05T07:53:47.716Z,80.89
2022-10-05T07:55:17.290Z,81.19
2022-10-05T07:56:35.411Z,80.79
2022-10-05T07:57:42.603Z,81.19
2022-10-05T07:58:45.170Z,80.48
2022-10-05T08:00:10.764Z,80.38
2022-10-05T08:01:38.709Z,80.04
2022-10-05T08:02:52.543Z,79.47
2022-10-05T08:03:56.557Z,79.69
2022-10-05T08:05:08.466Z,79.10
2022-10-05T08:06:34.850Z,79.90
2022-10-05T08:07:36.434Z,79.04
2022-10-05T08:08:58.657Z,79.62
2022-10-05T08:10:05.839Z,79.99
2022-10-05T08:11:23.041Z,79.00
2022-10-05T08:12:37.509Z,78.59
2022-10-05T08:13:49.058Z,78.64
2022-10-05T08:14:56.107Z,78.77
2022-10-05T08:16:02.396Z,78.34
2022-10-05T08:17:08.060Z,77.31
2022-10-05T08:18:20.630Z,77.31
2022-10-05T08:19:37.249Z,76.61
2022-10-05T08:20:50.242Z,75.80
2022-10-05T08:21:58.704Z,76.28
2022-10-05T08:23:26.668Z,75.54
2022-10-05T08:24:44.731Z,75.43
2022-10-05T08:25:53.566Z,75.90
2022-10-05T08:29:17.443Z,76.49
2022-10-05T08:30:19.149Z,75.47
2022-10-05T08:31:22.548Z,75.53
2022-10-05T08:32:55.389Z,76.19
2022-10-05T08:34:02.807Z,76.44
2022-10-05T08:35:25.101Z,75.67
2022-10-05T08:36:38.858Z,76.34
2022-10-05T08:37:41.346Z,75.63
2022-10-05T08:38:42.946Z,75.68
2022-10-05T08:39:56.761Z,76.02
2022-10-05T08:41:13.010Z,75.67
2022-10-05T08:42:36.408Z,75.31
2022-10-05T08:43:44.055Z,76.07
2022-10-05T08:44:52.599Z,75.78
2022-10-05T08:46:24.423Z,75.06
2022-10-05T08:47:32.794Z,75.74
2022-10-05T08:49:12.004Z,74.60
2022-10-05T08:50:37.785Z,75.28
2022-10-05T08:51:57.461Z,74.61
2022-10-05T08:53:13.928Z,75.10
2022-10-05T08:54:34.519Z,75.08
2022-10-05T08:55:51.178Z,75.93
2022-10-05T08:57:07.934Z,75.49
2022-10-05T08:58:33.052Z,76.06
2022-10-05T08:59:43.114Z,75.79
2022-10-05T09:00:53.763Z,75.98
2022-10-05T09:02:13.989Z,75.74
2022-10-05T09:03:25.752Z,76.30
2022-10-05T09:04:59.528Z,74.80
2022-10-05T09:06:15.729Z,74.96
2022-10-05T09:07:38.298Z,74.71
2022-10-05T09:08:55.519Z,73.63
2022-10-05T09:10:01.847Z,73.59
2022-10-05T09:11:13.369Z,73.85
2022-10-05T09:12:26.965Z,73.51
2022-10-05T09:13:58.184Z,73.88
2022-10-05T09:15:26.277Z,72.74
2022-10-05T09:16:40.936Z,70.85
2022-10-05T09:18:33.456Z,69.54
2022-10-05T09:19:56.639Z,70.43
2022-10-05T09:21:02.691Z,70.16
2022-10-05T09:22:14.162Z,71.06
2022-10-05T09:23:44.255Z,70.45
2022-10-05T09:24:57.879Z,70.03
2022-10-05T09:26:03.876Z,70.69
2022-10-05T09:27:11.971Z,70.89
2022-10-05T09:28:28.078Z,70.60
2022-10-05T09:29:48.531Z,70.73
2022-10-05T09:31:19.491Z,70.55
2022-10-05T09:32:51.695Z,70.42
2022-10-05T09:34:08.407Z,70.95
2022-10-05T09:35:47.303Z,71.45
2022-10-05T09:37:12.917Z,70.82
2022-10-05T09:38:33.393Z,70.42
2022-10-05T09:40:00.546Z,69.05
2022-10-05T09:41:29.882Z,69.57
2022-10-05T09:42:49.325Z,69.58
2022-10-05T09:44:03.314Z,69.24
2022-10-05T09:45:23.399Z,69.48
2022-10-05T09:46:41.945Z,69.58
2022-10-05T09:47:53.300Z,69.15
2022-10-05T09:48:54.808Z,68.79
2022-10-05T09:50:24.492Z,68.58
2022-10-05T09:52:05.930Z,67.96
2022-10-05T09:53:44.275Z,68.85
2022-10-05T09:55:02.910Z,68.13
2022-10-05T09:56:38.152Z,67.74
2022-10-05T09:57:58.370Z,68.73
2022-10-05T09:59:08.854Z,69.36
2022-10-05T10:01:09.662Z,70.03
2022-10-05T10:02:45.556Z,70.33
2022-10-05T10:04:10.242Z,69.82
2022-10-05T10:05:34.999Z,70.13
2022-10-05T10:06:51.618Z,70.65
2022-10-05T10:08:05.875Z,70.11
2022-10-05T10:09:21.813Z,70.74
2022-10-05T10:10:54.024Z,71.37
2022-10-05T10:12:26.587Z,71.64
2022-10-05T10:13:43.044Z,71.06
2022-10-05T10:14:49.007Z,71.38
2022-10-05T10:16:04.411Z,71.14
2022-10-05T10:17:12.527Z,71.70
2022-10-05T10:18:53.292Z,71.32
2022-10-05T10:20:09.290Z,71.74
2022-10-05T10:21:25.878Z,71.51
2022-10-05T10:22:30.386Z,70.72
2022-10-05T10:23:46.801Z,69.40
2022-10-05T10:25:01.304Z,71.30
2022-10-05T10:26:30.710Z,70.48
2022-10-05T10:28:03.389Z,69.73
2022-10-05T10:29:37.634Z,68.81
2022-10-05T10:31:19.594Z,69.03
2022-10-05T10:32:57.795Z,67.77
2022-10-05T10:34:18.133Z,68.20
2022-10-05T10:35:35.250Z,64.72
2022-10-05T10:36:52.440Z,64.21
2022-10-05T10:38:16.105Z,65.59
2022-10-05T10:39:24.277Z,65.48
2022-10-05T10:40:37.567Z,64.85
2022-10-05T10:41:57.277Z,64.75
2022-10-05T10:43:08.169Z,65.40
2022-10-05T10:44:37.455Z,63.25
2022-10-05T10:45:56.768Z,63.80
2022-10-05T10:47:31.300Z,62.46
2022-10-05T10:48:56.099Z,62.24
2022-10-05T10:50:16.182Z,63.20
2022-10-05T10:51:21.211Z,61.47
2022-10-05T10:52:41.244Z,61.28
2022-10-05T10:54:21.077Z,61.05
2022-10-05T10:55:44.426Z,61.94
2022-10-05T10:56:55.086Z,60.68
2022-10-05T10:58:26.437Z,60.43
2022-10-05T11:00:03.631Z,61.18
2022-10-05T11:01:07.827Z,60.97
2022-10-05T11:02:43.003Z,61.32
2022-10-05T11:04:13.837Z,60.90
2022-10-05T11:05:48.830Z,61.26
2022-10-05T11:07:15.358Z,61.43
2022-10-05T11:08:31.970Z,61.52
2022-10-05T11:10:10.974Z,60.15
2022-10-05T11:11:24.171Z,60.09
2022-10-05T11:12:38.643Z,59.64
2022-10-05T11:14:02.769Z,58.09
2022-10-05T11:15:05.491Z,56.12
2022-10-05T11:16:34.129Z,54.96
2022-10-05T11:17:58.235Z,54.71
2022-10-05T11:19:35.076Z,53.66
2022-10-05T11:21:10.056Z,53.14
2022-10-05T11:22:17.300Z,53.91
2022-10-05T11:23:43.253Z,56.10
2022-10-05T11:25:03.528Z,56.04
2022-10-05T11:26:37.105Z,55.74
2022-10-05T11:28:04.173Z,55.14
2022-10-05T11:29:20.440Z,55.93
2022-10-05T11:30:50.297Z,56.36
2022-10-05T11:32:30.727Z,55.19
2022-10-05T11:33:50.529Z,53.23
2022-10-05T11:35:24.621Z,54.26
2022-10-05T11:36:35.126Z,54.21
2022-10-05T11:37:42.342Z,53.52
2022-10-05T11:38:57.191Z,53.96
2022-10-05T11:40:26.804Z,55.35
2022-10-05T11:41:54.618Z,54.35
2022-10-05T11:43:20.827Z,54.05
2022-10-05T11:44:40.770Z,54.32
2022-10-05T11:46:07.084Z,53.65
2022-10-05T11:47:20.848Z,54.22
2022-10-05T11:48:38.081Z,54.20
2022-10-05T11:49:50.532Z,53.22
2022-10-05T11:51:04.903Z,54.30
2022-10-05T11:52:11.279Z,55.49
2022-10-05T11:53:14.317Z,56.39
2022-10-05T11:54:18.838Z,53.08
2022-10-05T11:55:20.495Z,53.63
2022-10-05T11:56:31.975Z,53.40
2022-10-05T11:57:38.205Z,52.41
2022-10-05T11:58:51.793Z,52.60
2022-10-05T11:59:56.847Z,52.78
2022-10-05T12:01:13.084Z,53.01
2022-10-05T12:02:23.509Z,54.16
2022-10-05T12:03:51.496Z,54.46
2022-10-05T12:05:32.718Z,54.52
2022-10-05T12:06:52.950Z,54.34
2022-10-05T12:08:04.492Z,53.93
2022-10-05T12:09:20.901Z,53.45
2022-10-05T12:10:33.781Z,53.02
2022-10-05T12:11:58.577Z,53.11
2022-10-05T12:13:19.427Z,52.96
2022-10-05T12:14:26.959Z,52.38
2022-10-05T12:15:28.462Z,51.89
2022-10-05T12:16:53.695Z,52.62
2022-10-05T12:18:08.368Z,53.18
2022-10-05T12:19:13.492Z,53.89
2022-10-05T12:20:21.128Z,53.76
2022-10-05T12:21:37.095Z,52.70
2022-10-05T12:22:41.860Z,52.71
2022-10-05T12:23:57.972Z,52.60
2022-10-05T12:25:26.244Z,52.80
2022-10-05T12:26:30.515Z,52.88
2022-10-05T12:27:36.133Z,53.78
2022-10-05T12:28:51.823Z,53.88
2022-10-05T12:30:34.496Z,54.06
2022-10-05T12:32:04.555Z,53.79
2022-10-05T12:33:38.735Z,55.02
2022-10-05T12:35:01.727Z,54.19
2022-10-05T12:36:35.990Z,53.51
2022-10-05T12:37:54.413Z,53.73
2022-10-05T12:38:58.135Z,53.93
2022-10-05T12:40:06.304Z,54.22
2022-10-05T12:41:13.348Z,54.26
2022-10-05T12:42:26.031Z,54.37
2022-10-05T12:43:45.766Z,53.86
2022-10-05T12:45:26.535Z,53.70
2022-10-05T12:47:05.618Z,55.42
2022-10-05T12:48:16.359Z,55.36
2022-10-05T12:49:40.356Z,53.92
2022-10-05T12:50:42.652Z,54.23
2022-10-05T12:52:04.464Z,55.11
2022-10-05T12:53:33.060Z,54.65
2022-10-05T12:54:44.435Z,54.33
2022-10-05T12:56:01.086Z,54.85
2022-10-05T12:57:07.998Z,55.24
2022-10-05T12:58:23.858Z,55.74
2022-10-05T12:59:34.390Z,56.31
2022-10-05T13:00:39.396Z,56.06
2022-10-05T13:01:53.861Z,55.42
2022-10-05T13:03:01.405Z,54.20
2022-10-05T13:04:20.696Z,54.24
2022-10-05T13:05:22.286Z,54.48
2022-10-05T13:06:53.162Z,54.76
2022-10-05T13:08:00.651Z,55.71
2022-10-05T13:09:08.679Z,55.96
2022-10-05T13:10:16.143Z,55.61
2022-10-05T13:11:23.870Z,55.79
2022-10-05T13:12:36.173Z,54.87
2022-10-05T13:13:40.334Z,55.14
2022-10-05T13:14:56.743Z,54.51
2022-10-05T13:16:23.818Z,54.11
2022-10-05T13:17:47.661Z,53.84
2022-10-05T13:19:23.171Z,54.75
2022-10-05T13:20:35.786Z,54.78
2022-10-05T13:21:46.228Z,55.27
2022-10-05T13:22:48.666Z,53.83
2022-10-05T13:24:01.652Z,54.27
2022-10-05T13:25:17.461Z,54.80
2022-10-05T13:26:39.572Z,53.70
2022-10-05T13:28:01.726Z,53.99
2022-10-05T13:29:22.273Z,53.52
2022-10-05T13:30:23.946Z,54.79
2022-10-05T13:31:28.973Z,55.13
2022-10-05T13:32:39.137Z,54.24
2022-10-05T13:33:53.469Z,54.16
2022-10-05T13:35:27.463Z,54.37
2022-10-05T13:36:52.430Z,53.80
2022-10-05T13:38:07.845Z,54.71
2022-10-05T13:39:19.385Z,54.62
2022-10-05T13:40:24.855Z,54.54
2022-10-05T13:41:52.713Z,54.91
2022-10-05T13:43:04.142Z,53.66
2022-10-05T13:44:17.853Z,54.26
2022-10-05T13:45:21.625Z,54.84
2022-10-05T13:46:33.321Z,55.00
2022-10-05T13:47:39.668Z,55.98
2022-10-05T13:48:57.701Z,55.90
2022-10-05T13:50:16.978Z,56.51
2022-10-05T13:51:23.196Z,54.78
2022-10-05T13:53:04.463Z,56.22
2022-10-05T13:54:27.200Z,55.34
2022-10-05T13:55:43.526Z,55.59
2022-10-05T13:56:47.612Z,56.30
2022-10-05T13:57:58.923Z,56.18
2022-10-05T13:59:23.737Z,55.85
2022-10-05T14:00:27.029Z,56.06
2022-10-05T14:01:42.436Z,56.21
2022-10-05T14:02:47.195Z,56.17
2022-10-05T14:04:04.015Z,55.82
2022-10-05T14:05:25.625Z,56.46
2022-10-05T14:06:30.102Z,57.56
2022-10-05T14:07:37.274Z,57.07
2022-10-05T14:08:54.261Z,57.18
2022-10-05T14:09:55.859Z,57.01
2022-10-05T14:10:58.295Z,57.37
2022-10-05T14:12:02.571Z,57.22
2022-10-05T14:13:28.930Z,57.36
2022-10-05T14:14:42.302Z,57.04
2022-10-05T14:16:13.693Z,57.13
2022-10-05T14:17:41.874Z,57.44
2022-10-05T14:19:06.462Z,57.62
2022-10-05T14:20:35.283Z,57.03
2022-10-05T14:21:46.481Z,57.41
2022-10-05T14:23:17.382Z,57.63
2022-10-05T14:24:46.388Z,58.49
2022-10-05T14:25:55.239Z,58.72
2022-10-05T14:26:57.556Z,58.92
2022-10-05T14:28:12.174Z,59.06
2022-10-05T14:29:18.369Z,59.20
2022-10-05T14:30:23.625Z,59.36
2022-10-05T14:31:35.843Z,59.41
2022-10-05T14:32:59.156Z,59.45
2022-10-05T14:34:32.886Z,59.99
2022-10-05T14:35:50.247Z,57.85
2022-10-05T14:36:56.469Z,58.25
2022-10-05T14:38:00.728Z,58.71
2022-10-05T14:39:05.005Z,58.14
2022-10-05T14:40:27.021Z,57.31
2022-10-05T14:41:28.942Z,57.65
2022-10-05T14:42:30.903Z,57.08
2022-10-05T14:43:32.482Z,57.81
2022-10-05T14:44:34.069Z,58.24
2022-10-05T14:45:35.820Z,58.86
2022-10-05T14:46:38.617Z,57.60
2022-10-05T14:47:51.410Z,57.70
2022-10-05T14:49:12.153Z,57.50
2022-10-05T14:50:18.889Z,58.03
2022-10-05T14:51:32.089Z,58.42
2022-10-05T14:52:34.802Z,57.43
2022-10-05T14:53:44.096Z,58.52
2022-10-05T14:54:47.197Z,59.56
2022-10-05T14:55:48.709Z,59.17
2022-10-05T14:57:03.421Z,59.50
2022-10-05T14:58:07.588Z,60.35
2022-10-05T14:59:23.284Z,60.71
2022-10-05T15:00:26.103Z,61.28
2022-10-05T15:01:39.332Z,61.19
2022-10-05T15:03:09.266Z,60.92
2022-10-05T15:04:21.194Z,61.27
2022-10-05T15:05:36.828Z,61.52
2022-10-05T15:07:13.464Z,61.84
2022-10-05T15:08:30.464Z,62.03
2022-10-05T15:09:37.918Z,62.33
2022-10-05T15:10:49.961Z,62.47
2022-10-05T15:11:53.437Z,62.75
2022-10-05T15:13:00.864Z,63.06
2022-10-05T15:14:02.559Z,63.34
2022-10-05T15:15:18.437Z,63.89
2022-10-05T15:16:24.880Z,63.50
2022-10-05T15:17:31.025Z,63.73
2022-10-05T15:18:51.188Z,63.15
2022-10-05T15:20:02.138Z,63.34
2022-10-05T15:21:24.129Z,63.22
2022-10-05T15:22:29.683Z,63.61
2022-10-05T15:23:47.491Z,63.48
2022-10-05T15:25:21.630Z,63.74
2022-10-05T15:26:42.068Z,64.08
2022-10-05T15:27:56.303Z,64.44
2022-10-05T15:29:09.801Z,64.91
2022-10-05T15:30:18.161Z,65.68
2022-10-05T15:31:33.036Z,65.89
2022-10-05T15:32:55.531Z,66.20
2022-10-05T15:34:17.953Z,66.60
2022-10-05T15:35:31.086Z,66.91
2022-10-05T15:36:56.261Z,67.29
2022-10-05T15:38:04.842Z,67.02
2022-10-05T15:39:39.979Z,66.72
2022-10-05T15:40:59.090Z,66.61
2022-10-05T15:42:03.595Z,66.92
2022-10-05T15:43:11.595Z,66.69
2022-10-05T15:44:47.703Z,66.35
2022-10-05T15:46:07.980Z,67.62
2022-10-05T15:47:14.182Z,68.40
2022-10-05T15:48:36.463Z,67.87
2022-10-05T15:49:47.377Z,67.46
2022-10-05T15:51:27.193Z,67.34
2022-10-05T15:52:40.919Z,67.65
2022-10-05T15:53:46.906Z,68.01
2022-10-05T15:55:17.243Z,68.19
2022-10-05T15:56:28.886Z,68.07
2022-10-05T15:57:53.610Z,68.06
2022-10-05T15:59:27.784Z,67.80
2022-10-05T16:00:30.444Z,67.86
2022-10-05T16:01:32.066Z,67.97
2022-10-05T16:02:40.800Z,67.91
2022-10-05T16:03:51.687Z,68.31
2022-10-05T16:05:09.452Z,68.47
2022-10-05T16:06:54.163Z,68.73
2022-10-05T16:08:14.198Z,68.90
2022-10-05T16:09:30.827Z,69.15
2022-10-05T16:10:34.463Z,69.10
2022-10-05T16:11:43.681Z,69.05
2022-10-05T16:13:04.989Z,69.23
2022-10-05T16:14:19.898Z,69.17
2022-10-05T16:15:26.664Z,69.22
2022-10-05T16:16:47.257Z,69.28
2022-10-05T16:18:29.061Z,69.20
2022-10-05T16:20:07.795Z,69.31
2022-10-05T16:21:16.078Z,68.85